sensor_id;sensor_type;location;lat;lon;timestamp;P1;durP1;ratioP1;P2;durP2;ratioP2
10985;SDS011;5546;48.714;8.738;2023-05-29T00:01:18;10.97;;;6.67;;
10985;SDS011;5546;48.714;8.738;2023-05-29T00:03:46;13.17;;;7.40;;
10985;SDS011;5546;48.714;8.738;2023-05-29T00:06:12;10.03;;;6.53;;
10985;SDS011;5546;48.714;8.738;2023-05-29T00:08:38;9.53;;;7.10;;
10985;SDS011;5546;48.714;8.738;2023-05-29T00:11:04;10.37;;;6.93;;
10985;SDS011;5546;48.714;8.738;2023-05-29T00:13:29;11.37;;;7.17;;
10985;SDS011;5546;48.714;8.738;2023-05-29T00:15:55;10.80;;;6.97;;
10985;SDS011;5546;48.714;8.738;2023-05-29T00:18:21;12.47;;;7.27;;
10985;SDS011;5546;48.714;8.738;2023-05-29T00:20:47;12.90;;;7.33;;
10985;SDS011;5546;48.714;8.738;2023-05-29T00:23:13;11.90;;;7.40;;
10985;SDS011;5546;48.714;8.738;2023-05-29T00:25:38;10.20;;;7.37;;
10985;SDS011;5546;48.714;8.738;2023-05-29T00:28:08;11.93;;;8.23;;
10985;SDS011;5546;48.714;8.738;2023-05-29T00:30:34;11.00;;;8.03;;
10985;SDS011;5546;48.714;8.738;2023-05-29T00:33:00;10.60;;;7.53;;
10985;SDS011;5546;48.714;8.738;2023-05-29T00:35:26;10.43;;;7.60;;
10985;SDS011;5546;48.714;8.738;2023-05-29T00:37:52;10.93;;;7.73;;
10985;SDS011;5546;48.714;8.738;2023-05-29T00:40:18;12.47;;;8.37;;
10985;SDS011;5546;48.714;8.738;2023-05-29T00:42:44;12.47;;;7.40;;
10985;SDS011;5546;48.714;8.738;2023-05-29T00:45:10;10.07;;;7.73;;
10985;SDS011;5546;48.714;8.738;2023-05-29T00:47:38;10.63;;;7.50;;
10985;SDS011;5546;48.714;8.738;2023-05-29T00:50:04;11.80;;;7.80;;
10985;SDS011;5546;48.714;8.738;2023-05-29T00:52:30;9.70;;;7.43;;
10985;SDS011;5546;48.714;8.738;2023-05-29T00:54:56;12.17;;;8.30;;
10985;SDS011;5546;48.714;8.738;2023-05-29T00:57:22;14.50;;;9.50;;
10985;SDS011;5546;48.714;8.738;2023-05-29T00:59:48;14.23;;;8.17;;
10985;SDS011;5546;48.714;8.738;2023-05-29T01:02:15;11.67;;;8.30;;
10985;SDS011;5546;48.714;8.738;2023-05-29T01:04:42;14.90;;;9.50;;
10985;SDS011;5546;48.714;8.738;2023-05-29T01:07:09;11.63;;;8.37;;
10985;SDS011;5546;48.714;8.738;2023-05-29T01:09:35;10.50;;;8.20;;
10985;SDS011;5546;48.714;8.738;2023-05-29T01:14:57;12.17;;;8.97;;
10985;SDS011;5546;48.714;8.738;2023-05-29T01:26:15;13.17;;;9.03;;
10985;SDS011;5546;48.714;8.738;2023-05-29T01:28:55;12.90;;;9.27;;
10985;SDS011;5546;48.714;8.738;2023-05-29T01:31:25;13.47;;;9.50;;
10985;SDS011;5546;48.714;8.738;2023-05-29T01:33:52;14.50;;;9.13;;
10985;SDS011;5546;48.714;8.738;2023-05-29T01:36:19;13.47;;;9.10;;
10985;SDS011;5546;48.714;8.738;2023-05-29T01:38:45;13.57;;;10.97;;
10985;SDS011;5546;48.714;8.738;2023-05-29T01:41:11;16.10;;;10.17;;
10985;SDS011;5546;48.714;8.738;2023-05-29T01:43:37;14.60;;;10.97;;
10985;SDS011;5546;48.714;8.738;2023-05-29T01:46:03;14.23;;;9.93;;
10985;SDS011;5546;48.714;8.738;2023-05-29T01:48:28;14.73;;;9.73;;
10985;SDS011;5546;48.714;8.738;2023-05-29T01:50:55;17.63;;;10.90;;
10985;SDS011;5546;48.714;8.738;2023-05-29T01:53:21;15.03;;;9.87;;
10985;SDS011;5546;48.714;8.738;2023-05-29T01:55:47;13.53;;;9.43;;
10985;SDS011;5546;48.714;8.738;2023-05-29T01:58:14;12.43;;;9.23;;
10985;SDS011;5546;48.714;8.738;2023-05-29T02:00:41;15.30;;;9.57;;
10985;SDS011;5546;48.714;8.738;2023-05-29T02:03:07;14.20;;;9.83;;
10985;SDS011;5546;48.714;8.738;2023-05-29T02:05:32;13.50;;;9.67;;
10985;SDS011;5546;48.714;8.738;2023-05-29T02:07:58;14.67;;;9.03;;
10985;SDS011;5546;48.714;8.738;2023-05-29T02:10:24;12.43;;;9.30;;
10985;SDS011;5546;48.714;8.738;2023-05-29T02:12:50;11.20;;;8.10;;
10985;SDS011;5546;48.714;8.738;2023-05-29T02:15:16;17.20;;;11.67;;
10985;SDS011;5546;48.714;8.738;2023-05-29T02:17:42;21.73;;;13.87;;
10985;SDS011;5546;48.714;8.738;2023-05-29T02:20:09;14.27;;;8.93;;
10985;SDS011;5546;48.714;8.738;2023-05-29T02:22:35;13.60;;;8.83;;
10985;SDS011;5546;48.714;8.738;2023-05-29T02:25:01;17.30;;;9.93;;
10985;SDS011;5546;48.714;8.738;2023-05-29T02:27:27;14.83;;;9.43;;
10985;SDS011;5546;48.714;8.738;2023-05-29T02:29:53;17.53;;;9.30;;
10985;SDS011;5546;48.714;8.738;2023-05-29T02:32:20;13.83;;;8.83;;
10985;SDS011;5546;48.714;8.738;2023-05-29T02:34:46;13.20;;;9.10;;
10985;SDS011;5546;48.714;8.738;2023-05-29T02:37:12;12.07;;;9.07;;
10985;SDS011;5546;48.714;8.738;2023-05-29T02:39:38;13.97;;;9.03;;
10985;SDS011;5546;48.714;8.738;2023-05-29T02:42:05;12.13;;;8.63;;
10985;SDS011;5546;48.714;8.738;2023-05-29T02:44:30;13.03;;;8.70;;
10985;SDS011;5546;48.714;8.738;2023-05-29T02:46:56;14.57;;;10.00;;
10985;SDS011;5546;48.714;8.738;2023-05-29T02:49:22;13.50;;;8.83;;
10985;SDS011;5546;48.714;8.738;2023-05-29T02:51:48;11.40;;;7.93;;
10985;SDS011;5546;48.714;8.738;2023-05-29T02:54:13;11.40;;;8.37;;
10985;SDS011;5546;48.714;8.738;2023-05-29T02:56:39;13.60;;;8.87;;
10985;SDS011;5546;48.714;8.738;2023-05-29T02:59:05;16.37;;;8.23;;
10985;SDS011;5546;48.714;8.738;2023-05-29T03:01:30;14.23;;;8.23;;
10985;SDS011;5546;48.714;8.738;2023-05-29T03:03:57;14.00;;;8.93;;
10985;SDS011;5546;48.714;8.738;2023-05-29T03:06:23;11.80;;;8.50;;
10985;SDS011;5546;48.714;8.738;2023-05-29T03:08:48;13.33;;;8.43;;
10985;SDS011;5546;48.714;8.738;2023-05-29T03:11:14;12.30;;;7.97;;
10985;SDS011;5546;48.714;8.738;2023-05-29T03:13:40;15.07;;;8.90;;
10985;SDS011;5546;48.714;8.738;2023-05-29T03:16:07;11.43;;;8.17;;
10985;SDS011;5546;48.714;8.738;2023-05-29T03:18:33;12.00;;;7.83;;
10985;SDS011;5546;48.714;8.738;2023-05-29T03:20:59;14.90;;;9.00;;
10985;SDS011;5546;48.714;8.738;2023-05-29T03:23:24;13.07;;;8.50;;
10985;SDS011;5546;48.714;8.738;2023-05-29T03:25:50;16.17;;;8.73;;
10985;SDS011;5546;48.714;8.738;2023-05-29T03:28:16;13.00;;;8.17;;
10985;SDS011;5546;48.714;8.738;2023-05-29T03:30:42;14.90;;;8.43;;
10985;SDS011;5546;48.714;8.738;2023-05-29T03:33:08;12.90;;;7.93;;
10985;SDS011;5546;48.714;8.738;2023-05-29T03:35:34;13.60;;;8.23;;
10985;SDS011;5546;48.714;8.738;2023-05-29T03:38:00;12.83;;;8.20;;
10985;SDS011;5546;48.714;8.738;2023-05-29T03:40:25;12.60;;;8.17;;
10985;SDS011;5546;48.714;8.738;2023-05-29T03:42:51;9.23;;;7.77;;
10985;SDS011;5546;48.714;8.738;2023-05-29T03:45:17;11.43;;;8.00;;
10985;SDS011;5546;48.714;8.738;2023-05-29T03:47:42;14.23;;;8.43;;
10985;SDS011;5546;48.714;8.738;2023-05-29T03:50:08;12.17;;;9.00;;
10985;SDS011;5546;48.714;8.738;2023-05-29T03:52:34;9.77;;;7.43;;
10985;SDS011;5546;48.714;8.738;2023-05-29T03:55:01;13.37;;;8.57;;
10985;SDS011;5546;48.714;8.738;2023-05-29T03:57:27;11.87;;;8.17;;
10985;SDS011;5546;48.714;8.738;2023-05-29T03:59:53;11.57;;;7.90;;
10985;SDS011;5546;48.714;8.738;2023-05-29T04:02:18;13.37;;;8.27;;
10985;SDS011;5546;48.714;8.738;2023-05-29T04:04:44;10.63;;;8.07;;
10985;SDS011;5546;48.714;8.738;2023-05-29T04:07:10;12.13;;;8.23;;
10985;SDS011;5546;48.714;8.738;2023-05-29T04:09:36;14.73;;;8.63;;
10985;SDS011;5546;48.714;8.738;2023-05-29T04:12:02;14.17;;;9.20;;
10985;SDS011;5546;48.714;8.738;2023-05-29T04:14:30;12.30;;;9.70;;
10985;SDS011;5546;48.714;8.738;2023-05-29T04:16:56;15.43;;;9.60;;
10985;SDS011;5546;48.714;8.738;2023-05-29T04:19:22;14.93;;;9.33;;
10985;SDS011;5546;48.714;8.738;2023-05-29T04:21:48;12.67;;;9.00;;
10985;SDS011;5546;48.714;8.738;2023-05-29T04:24:14;14.97;;;9.40;;
10985;SDS011;5546;48.714;8.738;2023-05-29T04:26:40;13.07;;;9.60;;
10985;SDS011;5546;48.714;8.738;2023-05-29T04:29:06;13.33;;;9.87;;
10985;SDS011;5546;48.714;8.738;2023-05-29T04:31:32;12.13;;;9.27;;
10985;SDS011;5546;48.714;8.738;2023-05-29T04:33:58;13.03;;;8.40;;
10985;SDS011;5546;48.714;8.738;2023-05-29T04:36:25;13.47;;;8.13;;
10985;SDS011;5546;48.714;8.738;2023-05-29T04:38:52;10.87;;;8.10;;
10985;SDS011;5546;48.714;8.738;2023-05-29T04:41:18;13.20;;;8.27;;
10985;SDS011;5546;48.714;8.738;2023-05-29T04:43:44;11.60;;;8.90;;
10985;SDS011;5546;48.714;8.738;2023-05-29T04:46:10;12.83;;;8.53;;
10985;SDS011;5546;48.714;8.738;2023-05-29T04:48:38;11.63;;;8.53;;
10985;SDS011;5546;48.714;8.738;2023-05-29T04:51:05;10.93;;;8.80;;
10985;SDS011;5546;48.714;8.738;2023-05-29T04:53:31;13.07;;;8.20;;
10985;SDS011;5546;48.714;8.738;2023-05-29T04:55:57;10.80;;;7.87;;
10985;SDS011;5546;48.714;8.738;2023-05-29T04:58:25;10.90;;;7.33;;
10985;SDS011;5546;48.714;8.738;2023-05-29T05:00:51;11.57;;;8.13;;
10985;SDS011;5546;48.714;8.738;2023-05-29T05:03:16;11.17;;;7.00;;
10985;SDS011;5546;48.714;8.738;2023-05-29T05:05:42;11.83;;;7.43;;
10985;SDS011;5546;48.714;8.738;2023-05-29T05:08:08;10.73;;;7.97;;
10985;SDS011;5546;48.714;8.738;2023-05-29T05:10:36;12.57;;;7.93;;
10985;SDS011;5546;48.714;8.738;2023-05-29T05:13:02;9.67;;;7.60;;
10985;SDS011;5546;48.714;8.738;2023-05-29T05:15:28;10.07;;;7.43;;
10985;SDS011;5546;48.714;8.738;2023-05-29T05:17:54;11.43;;;7.43;;
10985;SDS011;5546;48.714;8.738;2023-05-29T05:20:20;11.47;;;7.47;;
10985;SDS011;5546;48.714;8.738;2023-05-29T05:22:45;11.47;;;7.00;;
10985;SDS011;5546;48.714;8.738;2023-05-29T05:25:11;8.23;;;6.53;;
10985;SDS011;5546;48.714;8.738;2023-05-29T05:27:37;9.10;;;6.33;;
10985;SDS011;5546;48.714;8.738;2023-05-29T05:30:03;7.97;;;5.70;;
10985;SDS011;5546;48.714;8.738;2023-05-29T05:32:29;7.17;;;6.00;;
10985;SDS011;5546;48.714;8.738;2023-05-29T05:34:54;7.80;;;5.70;;
10985;SDS011;5546;48.714;8.738;2023-05-29T05:37:20;7.57;;;5.67;;
10985;SDS011;5546;48.714;8.738;2023-05-29T05:39:48;8.73;;;6.20;;
10985;SDS011;5546;48.714;8.738;2023-05-29T05:42:14;8.50;;;6.37;;
10985;SDS011;5546;48.714;8.738;2023-05-29T05:44:40;7.57;;;6.23;;
10985;SDS011;5546;48.714;8.738;2023-05-29T05:47:06;10.03;;;6.17;;
10985;SDS011;5546;48.714;8.738;2023-05-29T05:49:31;8.67;;;6.50;;
10985;SDS011;5546;48.714;8.738;2023-05-29T05:51:57;8.83;;;6.40;;
10985;SDS011;5546;48.714;8.738;2023-05-29T05:54:23;7.85;;;6.65;;
10985;SDS011;5546;48.714;8.738;2023-05-29T05:56:48;9.07;;;6.30;;
10985;SDS011;5546;48.714;8.738;2023-05-29T05:59:14;7.03;;;5.68;;
10985;SDS011;5546;48.714;8.738;2023-05-29T06:01:40;6.95;;;5.60;;
10985;SDS011;5546;48.714;8.738;2023-05-29T06:04:06;9.50;;;6.90;;
10985;SDS011;5546;48.714;8.738;2023-05-29T06:06:32;8.23;;;6.30;;
10985;SDS011;5546;48.714;8.738;2023-05-29T06:08:58;7.57;;;6.30;;
10985;SDS011;5546;48.714;8.738;2023-05-29T06:11:24;8.20;;;6.75;;
10985;SDS011;5546;48.714;8.738;2023-05-29T06:13:50;9.20;;;6.68;;
10985;SDS011;5546;48.714;8.738;2023-05-29T06:16:17;7.75;;;5.63;;
10985;SDS011;5546;48.714;8.738;2023-05-29T06:18:43;7.40;;;6.32;;
10985;SDS011;5546;48.714;8.738;2023-05-29T06:21:09;8.40;;;5.88;;
10985;SDS011;5546;48.714;8.738;2023-05-29T06:23:35;8.98;;;6.40;;
10985;SDS011;5546;48.714;8.738;2023-05-29T06:26:03;8.63;;;6.20;;
10985;SDS011;5546;48.714;8.738;2023-05-29T06:28:29;9.48;;;6.15;;
10985;SDS011;5546;48.714;8.738;2023-05-29T06:30:55;9.77;;;6.68;;
10985;SDS011;5546;48.714;8.738;2023-05-29T06:33:21;7.43;;;6.13;;
10985;SDS011;5546;48.714;8.738;2023-05-29T06:35:47;9.82;;;6.78;;
10985;SDS011;5546;48.714;8.738;2023-05-29T06:38:13;10.85;;;7.22;;
10985;SDS011;5546;48.714;8.738;2023-05-29T06:40:39;8.32;;;6.68;;
10985;SDS011;5546;48.714;8.738;2023-05-29T06:43:05;8.70;;;6.30;;
10985;SDS011;5546;48.714;8.738;2023-05-29T06:45:30;7.90;;;6.35;;
10985;SDS011;5546;48.714;8.738;2023-05-29T06:47:56;7.53;;;6.28;;
10985;SDS011;5546;48.714;8.738;2023-05-29T06:50:22;7.60;;;6.05;;
10985;SDS011;5546;48.714;8.738;2023-05-29T06:52:47;7.47;;;5.75;;
10985;SDS011;5546;48.714;8.738;2023-05-29T06:55:13;6.80;;;5.50;;
10985;SDS011;5546;48.714;8.738;2023-05-29T06:57:38;8.85;;;5.90;;
10985;SDS011;5546;48.714;8.738;2023-05-29T07:00:04;9.52;;;5.70;;
10985;SDS011;5546;48.714;8.738;2023-05-29T07:02:31;6.00;;;5.40;;
10985;SDS011;5546;48.714;8.738;2023-05-29T07:04:57;6.53;;;5.10;;
10985;SDS011;5546;48.714;8.738;2023-05-29T07:07:22;6.85;;;5.10;;
10985;SDS011;5546;48.714;8.738;2023-05-29T07:09:48;5.40;;;4.28;;
10985;SDS011;5546;48.714;8.738;2023-05-29T07:12:13;7.07;;;4.57;;
10985;SDS011;5546;48.714;8.738;2023-05-29T07:14:39;6.70;;;4.60;;
10985;SDS011;5546;48.714;8.738;2023-05-29T07:17:04;4.90;;;4.40;;
10985;SDS011;5546;48.714;8.738;2023-05-29T07:19:30;4.70;;;4.25;;
10985;SDS011;5546;48.714;8.738;2023-05-29T07:21:58;5.32;;;4.05;;
10985;SDS011;5546;48.714;8.738;2023-05-29T07:24:24;4.82;;;4.20;;
10985;SDS011;5546;48.714;8.738;2023-05-29T07:26:50;12.00;;;4.07;;
10985;SDS011;5546;48.714;8.738;2023-05-29T07:29:16;5.63;;;4.00;;
10985;SDS011;5546;48.714;8.738;2023-05-29T07:31:43;6.05;;;4.22;;
10985;SDS011;5546;48.714;8.738;2023-05-29T07:34:09;6.07;;;4.30;;
10985;SDS011;5546;48.714;8.738;2023-05-29T07:36:35;5.93;;;4.20;;
10985;SDS011;5546;48.714;8.738;2023-05-29T07:39:01;5.55;;;4.20;;
10985;SDS011;5546;48.714;8.738;2023-05-29T07:41:27;5.60;;;3.72;;
10985;SDS011;5546;48.714;8.738;2023-05-29T07:43:52;6.45;;;4.25;;
10985;SDS011;5546;48.714;8.738;2023-05-29T07:46:20;5.88;;;4.38;;
10985;SDS011;5546;48.714;8.738;2023-05-29T07:48:45;5.82;;;4.22;;
10985;SDS011;5546;48.714;8.738;2023-05-29T07:51:11;5.90;;;4.40;;
10985;SDS011;5546;48.714;8.738;2023-05-29T07:53:37;7.15;;;4.13;;
10985;SDS011;5546;48.714;8.738;2023-05-29T07:56:03;6.78;;;4.25;;
10985;SDS011;5546;48.714;8.738;2023-05-29T07:58:28;6.72;;;4.35;;
10985;SDS011;5546;48.714;8.738;2023-05-29T08:00:54;6.47;;;4.20;;
10985;SDS011;5546;48.714;8.738;2023-05-29T08:03:20;7.80;;;4.50;;
10985;SDS011;5546;48.714;8.738;2023-05-29T08:05:46;6.07;;;4.28;;
10985;SDS011;5546;48.714;8.738;2023-05-29T08:08:11;6.07;;;4.78;;
10985;SDS011;5546;48.714;8.738;2023-05-29T08:10:37;5.47;;;4.03;;
10985;SDS011;5546;48.714;8.738;2023-05-29T08:13:03;7.70;;;4.30;;
10985;SDS011;5546;48.714;8.738;2023-05-29T08:15:29;5.13;;;4.15;;
10985;SDS011;5546;48.714;8.738;2023-05-29T08:17:56;5.82;;;4.20;;
10985;SDS011;5546;48.714;8.738;2023-05-29T08:20:21;5.40;;;4.30;;
10985;SDS011;5546;48.714;8.738;2023-05-29T08:22:47;6.72;;;4.90;;
10985;SDS011;5546;48.714;8.738;2023-05-29T08:25:13;6.35;;;5.00;;
10985;SDS011;5546;48.714;8.738;2023-05-29T08:27:38;8.10;;;4.53;;
10985;SDS011;5546;48.714;8.738;2023-05-29T08:30:04;6.00;;;5.15;;
10985;SDS011;5546;48.714;8.738;2023-05-29T08:32:30;6.63;;;4.90;;
10985;SDS011;5546;48.714;8.738;2023-05-29T08:34:56;5.45;;;4.60;;
10985;SDS011;5546;48.714;8.738;2023-05-29T08:37:22;6.55;;;4.50;;
10985;SDS011;5546;48.714;8.738;2023-05-29T08:39:47;7.88;;;4.80;;
10985;SDS011;5546;48.714;8.738;2023-05-29T08:42:20;5.10;;;4.47;;
10985;SDS011;5546;48.714;8.738;2023-05-29T08:44:50;5.88;;;4.60;;
10985;SDS011;5546;48.714;8.738;2023-05-29T08:47:22;7.45;;;4.90;;
10985;SDS011;5546;48.714;8.738;2023-05-29T08:49:52;7.75;;;4.63;;
10985;SDS011;5546;48.714;8.738;2023-05-29T08:52:19;4.80;;;4.30;;
10985;SDS011;5546;48.714;8.738;2023-05-29T08:54:47;8.07;;;4.78;;
10985;SDS011;5546;48.714;8.738;2023-05-29T08:57:13;5.72;;;4.75;;
10985;SDS011;5546;48.714;8.738;2023-05-29T08:59:40;5.75;;;4.57;;
10985;SDS011;5546;48.714;8.738;2023-05-29T09:02:07;6.18;;;4.50;;
10985;SDS011;5546;48.714;8.738;2023-05-29T09:04:33;7.88;;;4.93;;
10985;SDS011;5546;48.714;8.738;2023-05-29T09:06:59;5.70;;;4.45;;
10985;SDS011;5546;48.714;8.738;2023-05-29T09:09:25;5.85;;;4.40;;
10985;SDS011;5546;48.714;8.738;2023-05-29T09:11:54;5.60;;;4.50;;
10985;SDS011;5546;48.714;8.738;2023-05-29T09:17:09;6.78;;;5.10;;
10985;SDS011;5546;48.714;8.738;2023-05-29T09:19:36;7.20;;;4.85;;
10985;SDS011;5546;48.714;8.738;2023-05-29T09:22:07;4.90;;;4.40;;
10985;SDS011;5546;48.714;8.738;2023-05-29T09:24:35;6.32;;;4.47;;
10985;SDS011;5546;48.714;8.738;2023-05-29T09:27:02;6.35;;;4.60;;
10985;SDS011;5546;48.714;8.738;2023-05-29T09:29:39;6.85;;;5.05;;
10985;SDS011;5546;48.714;8.738;2023-05-29T09:32:10;4.85;;;4.05;;
10985;SDS011;5546;48.714;8.738;2023-05-29T09:34:37;8.95;;;4.93;;
10985;SDS011;5546;48.714;8.738;2023-05-29T09:37:03;7.10;;;4.90;;
10985;SDS011;5546;48.714;8.738;2023-05-29T09:39:49;5.95;;;4.65;;
10985;SDS011;5546;48.714;8.738;2023-05-29T09:42:16;7.30;;;4.68;;
10985;SDS011;5546;48.714;8.738;2023-05-29T09:44:49;8.00;;;4.90;;
10985;SDS011;5546;48.714;8.738;2023-05-29T09:47:18;6.40;;;4.72;;
10985;SDS011;5546;48.714;8.738;2023-05-29T09:49:44;6.03;;;4.50;;
10985;SDS011;5546;48.714;8.738;2023-05-29T09:52:14;5.85;;;4.60;;
10985;SDS011;5546;48.714;8.738;2023-05-29T09:54:45;6.07;;;4.78;;
10985;SDS011;5546;48.714;8.738;2023-05-29T09:57:12;5.20;;;4.70;;
10985;SDS011;5546;48.714;8.738;2023-05-29T09:59:42;6.72;;;4.65;;
10985;SDS011;5546;48.714;8.738;2023-05-29T10:02:16;6.45;;;4.70;;
10985;SDS011;5546;48.714;8.738;2023-05-29T10:04:42;6.07;;;4.40;;
10985;SDS011;5546;48.714;8.738;2023-05-29T10:09:52;6.03;;;4.78;;
10985;SDS011;5546;48.714;8.738;2023-05-29T10:12:25;6.97;;;4.78;;
10985;SDS011;5546;48.714;8.738;2023-05-29T10:14:52;5.60;;;4.85;;
10985;SDS011;5546;48.714;8.738;2023-05-29T10:17:22;8.07;;;5.60;;
10985;SDS011;5546;48.714;8.738;2023-05-29T10:19:53;6.47;;;4.78;;
10985;SDS011;5546;48.714;8.738;2023-05-29T10:22:21;6.20;;;4.65;;
10985;SDS011;5546;48.714;8.738;2023-05-29T10:24:51;6.50;;;4.80;;
10985;SDS011;5546;48.714;8.738;2023-05-29T10:27:17;7.13;;;5.22;;
10985;SDS011;5546;48.714;8.738;2023-05-29T10:29:48;6.15;;;4.40;;
10985;SDS011;5546;48.714;8.738;2023-05-29T10:37:46;6.78;;;4.63;;
10985;SDS011;5546;48.714;8.738;2023-05-29T10:40:13;6.90;;;4.25;;
10985;SDS011;5546;48.714;8.738;2023-05-29T10:42:46;6.75;;;4.85;;
10985;SDS011;5546;48.714;8.738;2023-05-29T10:45:47;6.40;;;4.22;;
10985;SDS011;5546;48.714;8.738;2023-05-29T10:50:43;8.48;;;4.60;;
10985;SDS011;5546;48.714;8.738;2023-05-29T10:53:10;6.50;;;4.13;;
10985;SDS011;5546;48.714;8.738;2023-05-29T10:55:41;6.68;;;4.55;;
10985;SDS011;5546;48.714;8.738;2023-05-29T10:58:14;9.25;;;4.85;;
10985;SDS011;5546;48.714;8.738;2023-05-29T11:00:44;5.10;;;4.13;;
10985;SDS011;5546;48.714;8.738;2023-05-29T11:03:20;5.90;;;4.93;;
10985;SDS011;5546;48.714;8.738;2023-05-29T11:05:58;6.30;;;4.43;;
10985;SDS011;5546;48.714;8.738;2023-05-29T11:11:11;5.38;;;4.47;;
10985;SDS011;5546;48.714;8.738;2023-05-29T11:13:40;5.32;;;4.55;;
10985;SDS011;5546;48.714;8.738;2023-05-29T11:18:54;6.22;;;4.50;;
10985;SDS011;5546;48.714;8.738;2023-05-29T11:23:52;6.78;;;4.43;;
10985;SDS011;5546;48.714;8.738;2023-05-29T11:26:22;7.40;;;4.50;;
10985;SDS011;5546;48.714;8.738;2023-05-29T11:28:49;7.63;;;4.72;;
10985;SDS011;5546;48.714;8.738;2023-05-29T11:31:17;6.15;;;4.55;;
10985;SDS011;5546;48.714;8.738;2023-05-29T11:33:47;7.35;;;4.43;;
10985;SDS011;5546;48.714;8.738;2023-05-29T11:36:21;5.60;;;4.10;;
10985;SDS011;5546;48.714;8.738;2023-05-29T11:38:47;5.85;;;4.45;;
10985;SDS011;5546;48.714;8.738;2023-05-29T11:41:12;6.35;;;4.30;;
10985;SDS011;5546;48.714;8.738;2023-05-29T11:43:38;4.80;;;4.35;;
10985;SDS011;5546;48.714;8.738;2023-05-29T11:46:17;7.97;;;4.70;;
10985;SDS011;5546;48.714;8.738;2023-05-29T11:48:47;4.40;;;3.88;;
10985;SDS011;5546;48.714;8.738;2023-05-29T11:51:13;5.72;;;4.50;;
10985;SDS011;5546;48.714;8.738;2023-05-29T11:53:40;7.53;;;4.53;;
10985;SDS011;5546;48.714;8.738;2023-05-29T11:56:07;6.45;;;4.30;;
10985;SDS011;5546;48.714;8.738;2023-05-29T11:58:35;5.22;;;4.00;;
10985;SDS011;5546;48.714;8.738;2023-05-29T12:01:05;4.88;;;4.10;;
10985;SDS011;5546;48.714;8.738;2023-05-29T12:03:31;9.80;;;4.25;;
10985;SDS011;5546;48.714;8.738;2023-05-29T12:06:03;5.68;;;4.10;;
10985;SDS011;5546;48.714;8.738;2023-05-29T12:08:29;8.30;;;4.20;;
10985;SDS011;5546;48.714;8.738;2023-05-29T12:10:54;6.63;;;4.28;;
10985;SDS011;5546;48.714;8.738;2023-05-29T12:13:20;7.10;;;3.97;;
10985;SDS011;5546;48.714;8.738;2023-05-29T12:15:47;8.10;;;4.15;;
10985;SDS011;5546;48.714;8.738;2023-05-29T12:18:14;6.18;;;4.20;;
10985;SDS011;5546;48.714;8.738;2023-05-29T12:20:40;5.38;;;4.13;;
10985;SDS011;5546;48.714;8.738;2023-05-29T12:23:05;10.13;;;4.32;;
10985;SDS011;5546;48.714;8.738;2023-05-29T12:25:33;5.70;;;4.05;;
10985;SDS011;5546;48.714;8.738;2023-05-29T12:28:01;6.10;;;4.35;;
10985;SDS011;5546;48.714;8.738;2023-05-29T12:30:27;4.75;;;4.28;;
10985;SDS011;5546;48.714;8.738;2023-05-29T12:32:53;7.00;;;4.25;;
10985;SDS011;5546;48.714;8.738;2023-05-29T12:35:19;4.82;;;4.07;;
10985;SDS011;5546;48.714;8.738;2023-05-29T12:37:46;9.63;;;4.00;;
10985;SDS011;5546;48.714;8.738;2023-05-29T12:40:20;5.63;;;3.90;;
10985;SDS011;5546;48.714;8.738;2023-05-29T12:42:47;6.15;;;4.43;;
10985;SDS011;5546;48.714;8.738;2023-05-29T12:45:14;4.97;;;3.58;;
10985;SDS011;5546;48.714;8.738;2023-05-29T12:48:01;6.10;;;4.10;;
10985;SDS011;5546;48.714;8.738;2023-05-29T12:50:29;9.38;;;4.20;;
10985;SDS011;5546;48.714;8.738;2023-05-29T12:53:00;6.93;;;3.95;;
10985;SDS011;5546;48.714;8.738;2023-05-29T12:55:34;6.22;;;4.13;;
10985;SDS011;5546;48.714;8.738;2023-05-29T12:58:04;5.00;;;4.32;;
10985;SDS011;5546;48.714;8.738;2023-05-29T13:00:35;4.43;;;3.85;;
10985;SDS011;5546;48.714;8.738;2023-05-29T13:03:02;4.85;;;4.07;;
10985;SDS011;5546;48.714;8.738;2023-05-29T13:05:28;5.53;;;3.95;;
10985;SDS011;5546;48.714;8.738;2023-05-29T13:07:54;4.95;;;4.03;;
10985;SDS011;5546;48.714;8.738;2023-05-29T13:10:20;5.55;;;4.13;;
10985;SDS011;5546;48.714;8.738;2023-05-29T13:12:46;7.18;;;4.18;;
10985;SDS011;5546;48.714;8.738;2023-05-29T13:15:13;5.30;;;3.58;;
10985;SDS011;5546;48.714;8.738;2023-05-29T13:17:39;4.78;;;3.08;;
10985;SDS011;5546;48.714;8.738;2023-05-29T13:20:09;5.22;;;3.80;;
10985;SDS011;5546;48.714;8.738;2023-05-29T13:22:37;4.18;;;3.70;;
10985;SDS011;5546;48.714;8.738;2023-05-29T13:25:03;5.25;;;3.75;;
10985;SDS011;5546;48.714;8.738;2023-05-29T13:27:32;3.97;;;3.58;;
10985;SDS011;5546;48.714;8.738;2023-05-29T13:30:01;5.57;;;3.75;;
10985;SDS011;5546;48.714;8.738;2023-05-29T13:32:28;5.05;;;3.80;;
10985;SDS011;5546;48.714;8.738;2023-05-29T13:34:54;7.60;;;3.47;;
10985;SDS011;5546;48.714;8.738;2023-05-29T13:37:20;5.68;;;3.83;;
10985;SDS011;5546;48.714;8.738;2023-05-29T13:39:46;6.60;;;3.83;;
10985;SDS011;5546;48.714;8.738;2023-05-29T13:42:11;4.20;;;3.50;;
10985;SDS011;5546;48.714;8.738;2023-05-29T13:44:38;4.22;;;3.60;;
10985;SDS011;5546;48.714;8.738;2023-05-29T13:47:07;4.75;;;3.80;;
10985;SDS011;5546;48.714;8.738;2023-05-29T13:49:33;4.95;;;3.42;;
10985;SDS011;5546;48.714;8.738;2023-05-29T13:51:59;6.90;;;4.20;;
10985;SDS011;5546;48.714;8.738;2023-05-29T13:54:25;5.03;;;3.47;;
10985;SDS011;5546;48.714;8.738;2023-05-29T13:56:54;4.65;;;3.53;;
10985;SDS011;5546;48.714;8.738;2023-05-29T13:59:20;5.03;;;3.80;;
10985;SDS011;5546;48.714;8.738;2023-05-29T14:01:46;8.57;;;3.60;;
10985;SDS011;5546;48.714;8.738;2023-05-29T14:04:12;5.32;;;3.65;;
10985;SDS011;5546;48.714;8.738;2023-05-29T14:06:38;4.60;;;3.60;;
10985;SDS011;5546;48.714;8.738;2023-05-29T14:09:04;4.68;;;3.35;;
10985;SDS011;5546;48.714;8.738;2023-05-29T14:11:34;4.72;;;3.92;;
10985;SDS011;5546;48.714;8.738;2023-05-29T14:14:01;4.05;;;3.55;;
10985;SDS011;5546;48.714;8.738;2023-05-29T14:16:27;5.15;;;3.88;;
10985;SDS011;5546;48.714;8.738;2023-05-29T14:18:53;4.78;;;3.33;;
10985;SDS011;5546;48.714;8.738;2023-05-29T14:21:19;5.07;;;3.80;;
10985;SDS011;5546;48.714;8.738;2023-05-29T14:23:45;5.45;;;3.70;;
10985;SDS011;5546;48.714;8.738;2023-05-29T14:26:11;5.18;;;3.75;;
10985;SDS011;5546;48.714;8.738;2023-05-29T14:28:37;4.93;;;3.38;;
10985;SDS011;5546;48.714;8.738;2023-05-29T14:31:04;4.10;;;3.70;;
10985;SDS011;5546;48.714;8.738;2023-05-29T14:33:30;3.80;;;3.40;;
10985;SDS011;5546;48.714;8.738;2023-05-29T14:35:56;4.68;;;3.70;;
10985;SDS011;5546;48.714;8.738;2023-05-29T14:38:22;4.57;;;3.80;;
10985;SDS011;5546;48.714;8.738;2023-05-29T14:40:48;6.15;;;3.50;;
10985;SDS011;5546;48.714;8.738;2023-05-29T14:43:14;4.20;;;3.78;;
10985;SDS011;5546;48.714;8.738;2023-05-29T14:45:40;4.07;;;3.47;;
10985;SDS011;5546;48.714;8.738;2023-05-29T14:48:05;6.28;;;4.10;;
10985;SDS011;5546;48.714;8.738;2023-05-29T14:50:31;4.22;;;3.83;;
10985;SDS011;5546;48.714;8.738;2023-05-29T14:52:57;4.13;;;3.58;;
10985;SDS011;5546;48.714;8.738;2023-05-29T14:55:22;5.30;;;3.47;;
10985;SDS011;5546;48.714;8.738;2023-05-29T14:57:48;4.20;;;3.65;;
10985;SDS011;5546;48.714;8.738;2023-05-29T15:00:14;5.32;;;3.33;;
10985;SDS011;5546;48.714;8.738;2023-05-29T15:02:40;5.18;;;3.47;;
10985;SDS011;5546;48.714;8.738;2023-05-29T15:05:06;6.40;;;3.85;;
10985;SDS011;5546;48.714;8.738;2023-05-29T15:07:32;4.97;;;3.70;;
10985;SDS011;5546;48.714;8.738;2023-05-29T15:10:02;4.60;;;3.42;;
10985;SDS011;5546;48.714;8.738;2023-05-29T15:12:28;4.28;;;3.33;;
10985;SDS011;5546;48.714;8.738;2023-05-29T15:14:54;3.95;;;3.55;;
10985;SDS011;5546;48.714;8.738;2023-05-29T15:17:20;5.40;;;4.00;;
10985;SDS011;5546;48.714;8.738;2023-05-29T15:19:46;3.75;;;3.38;;
10985;SDS011;5546;48.714;8.738;2023-05-29T15:22:12;5.95;;;3.60;;
10985;SDS011;5546;48.714;8.738;2023-05-29T15:24:38;4.40;;;3.42;;
10985;SDS011;5546;48.714;8.738;2023-05-29T15:27:04;4.50;;;3.88;;